sensor_id;sensor_type;location;lat;lon;timestamp;pressure;altitude;pressure_sealevel;temperature;humidity
45793;BME280;31495;42.740;22.908;2022-07-23T00:00:26;93430.91;;;18.77;53.12
45793;BME280;31495;42.740;22.908;2022-07-23T00:01:25;93430.41;;;18.80;53.23
45793;BME280;31495;42.740;22.908;2022-07-23T00:02:26;93469.06;;;18.95;53.32
45793;BME280;31495;42.740;22.908;2022-07-23T00:03:26;93450.34;;;18.81;53.43
45793;BME280;31495;42.740;22.908;2022-07-23T00:04:25;93466.19;;;18.96;53.29
45793;BME280;31495;42.740;22.908;2022-07-23T00:05:25;93460.38;;;18.89;53.50
45793;BME280;31495;42.740;22.908;2022-07-23T00:06:25;93440.88;;;18.74;53.55
45793;BME280;31495;42.740;22.908;2022-07-23T00:07:25;93476.13;;;18.89;53.23
45793;BME280;31495;42.740;22.908;2022-07-23T00:08:24;93451.00;;;18.66;53.63
45793;BME280;31495;42.740;22.908;2022-07-23T00:09:23;93443.13;;;18.61;54.19
45793;BME280;31495;42.740;22.908;2022-07-23T00:10:23;93475.75;;;18.80;54.10
45793;BME280;31495;42.740;22.908;2022-07-23T00:11:22;93471.50;;;18.74;54.42
45793;BME280;31495;42.740;22.908;2022-07-23T00:12:22;93450.44;;;18.59;54.26
45793;BME280;31495;42.740;22.908;2022-07-23T00:13:21;93439.66;;;18.50;54.38
45793;BME280;31495;42.740;22.908;2022-07-23T00:14:20;93472.28;;;18.69;54.24
45793;BME280;31495;42.740;22.908;2022-07-23T00:15:20;93467.03;;;18.69;54.16
45793;BME280;31495;42.740;22.908;2022-07-23T00:16:19;93462.56;;;18.65;54.20
45793;BME280;31495;42.740;22.908;2022-07-23T00:17:19;93452.53;;;18.57;54.45
45793;BME280;31495;42.740;22.908;2022-07-23T00:18:18;93469.97;;;18.78;54.10
45793;BME280;31495;42.740;22.908;2022-07-23T00:19:18;93461.81;;;18.69;54.26
45793;BME280;31495;42.740;22.908;2022-07-23T00:20:18;93471.00;;;18.77;54.46
45793;BME280;31495;42.740;22.908;2022-07-23T00:21:17;93463.63;;;18.69;53.93
45793;BME280;31495;42.740;22.908;2022-07-23T00:22:17;93447.50;;;18.50;54.23
45793;BME280;31495;42.740;22.908;2022-07-23T00:23:17;93466.69;;;18.61;54.65
45793;BME280;31495;42.740;22.908;2022-07-23T00:24:17;93471.16;;;18.60;54.60
45793;BME280;31495;42.740;22.908;2022-07-23T00:25:16;93449.03;;;18.46;54.41
45793;BME280;31495;42.740;22.908;2022-07-23T00:26:16;93454.31;;;18.51;54.64
45793;BME280;31495;42.740;22.908;2022-07-23T00:27:15;93469.88;;;18.63;54.35
45793;BME280;31495;42.740;22.908;2022-07-23T00:28:14;93471.69;;;18.62;54.55
45793;BME280;31495;42.740;22.908;2022-07-23T00:29:14;93459.59;;;18.56;54.53
45793;BME280;31495;42.740;22.908;2022-07-23T00:30:14;93448.28;;;18.50;54.02
45793;BME280;31495;42.740;22.908;2022-07-23T00:31:13;93445.66;;;18.50;54.59
45793;BME280;31495;42.740;22.908;2022-07-23T00:32:13;93462.56;;;18.65;54.23
45793;BME280;31495;42.740;22.908;2022-07-23T00:33:12;93440.97;;;18.52;54.42
45793;BME280;31495;42.740;22.908;2022-07-23T00:34:12;93441.25;;;18.56;54.09
45793;BME280;31495;42.740;22.908;2022-07-23T00:35:11;93445.72;;;18.61;54.31
45793;BME280;31495;42.740;22.908;2022-07-23T00:36:11;93459.97;;;18.70;53.85
45793;BME280;31495;42.740;22.908;2022-07-23T00:37:10;93433.34;;;18.51;53.92
45793;BME280;31495;42.740;22.908;2022-07-23T00:38:10;93454.44;;;18.66;54.28
45793;BME280;31495;42.740;22.908;2022-07-23T00:39:10;93458.34;;;18.64;54.01
45793;BME280;31495;42.740;22.908;2022-07-23T00:40:10;93455.22;;;18.67;54.27
45793;BME280;31495;42.740;22.908;2022-07-23T00:41:10;93456.81;;;18.68;53.90
45793;BME280;31495;42.740;22.908;2022-07-23T00:42:09;93450.19;;;18.60;53.93
45793;BME280;31495;42.740;22.908;2022-07-23T00:43:09;93459.41;;;18.63;54.25
45793;BME280;31495;42.740;22.908;2022-07-23T00:44:25;93458.34;;;18.64;54.27
45793;BME280;31495;42.740;22.908;2022-07-23T00:45:25;93457.06;;;18.66;54.68
45793;BME280;31495;42.740;22.908;2022-07-23T00:46:24;93443.84;;;18.51;54.37
45793;BME280;31495;42.740;22.908;2022-07-23T00:47:24;93426.00;;;18.48;54.08
45793;BME280;31495;42.740;22.908;2022-07-23T00:48:23;93455.69;;;18.59;54.67
45793;BME280;31495;42.740;22.908;2022-07-23T00:49:26;93460.13;;;18.53;54.77
45793;BME280;31495;42.740;22.908;2022-07-23T00:50:26;93418.28;;;18.31;54.72
45793;BME280;31495;42.740;22.908;2022-07-23T00:51:25;93445.59;;;18.40;54.51
45793;BME280;31495;42.740;22.908;2022-07-23T00:52:25;93434.03;;;18.36;54.69
45793;BME280;31495;42.740;22.908;2022-07-23T00:53:25;93456.91;;;18.46;54.59
45793;BME280;31495;42.740;22.908;2022-07-23T00:54:26;93454.28;;;18.46;54.88
45793;BME280;31495;42.740;22.908;2022-07-23T00:55:26;93441.88;;;18.36;54.90
45793;BME280;31495;42.740;22.908;2022-07-23T00:56:26;93466.13;;;18.53;54.68
45793;BME280;31495;42.740;22.908;2022-07-23T00:57:26;93432.22;;;18.36;54.87
45793;BME280;31495;42.740;22.908;2022-07-23T00:58:25;93449.31;;;18.49;54.45
45793;BME280;31495;42.740;22.908;2022-07-23T00:59:25;93462.72;;;18.53;54.67
45793;BME280;31495;42.740;22.908;2022-07-23T01:00:24;93427.69;;;18.27;54.81
45793;BME280;31495;42.740;22.908;2022-07-23T01:01:24;93464.22;;;18.44;55.05
45793;BME280;31495;42.740;22.908;2022-07-23T01:02:24;93470.44;;;18.37;55.34
45793;BME280;31495;42.740;22.908;2022-07-23T01:03:24;93453.06;;;18.26;55.33
45793;BME280;31495;42.740;22.908;2022-07-23T01:04:23;93460.47;;;18.34;55.03
45793;BME280;31495;42.740;22.908;2022-07-23T01:05:23;93466.28;;;18.36;54.61
45793;BME280;31495;42.740;22.908;2022-07-23T01:06:23;93442.84;;;18.25;54.70
45793;BME280;31495;42.740;22.908;2022-07-23T01:07:23;93468.09;;;18.36;54.79
45793;BME280;31495;42.740;22.908;2022-07-23T01:08:23;93451.00;;;18.28;54.72
45793;BME280;31495;42.740;22.908;2022-07-23T01:09:22;93452.53;;;18.24;54.90
45793;BME280;31495;42.740;22.908;2022-07-23T01:10:22;93442.31;;;18.23;54.92
45793;BME280;31495;42.740;22.908;2022-07-23T01:11:36;93451.00;;;18.28;54.92
45793;BME280;31495;42.740;22.908;2022-07-23T01:12:35;93442.34;;;18.28;54.76
45793;BME280;31495;42.740;22.908;2022-07-23T01:13:35;93446.06;;;18.32;54.80
45793;BME280;31495;42.740;22.908;2022-07-23T01:14:34;93414.44;;;18.11;54.81
45793;BME280;31495;42.740;22.908;2022-07-23T01:15:35;93442.06;;;18.24;54.49
45793;BME280;31495;42.740;22.908;2022-07-23T01:16:35;93463.28;;;18.28;54.73
45793;BME280;31495;42.740;22.908;2022-07-23T01:17:34;93424.75;;;17.91;55.04
45793;BME280;31495;42.740;22.908;2022-07-23T01:18:34;93464.69;;;18.08;55.30
45793;BME280;31495;42.740;22.908;2022-07-23T01:19:33;93455.84;;;17.87;55.57
45793;BME280;31495;42.740;22.908;2022-07-23T01:20:33;93458.78;;;17.91;56.05
45793;BME280;31495;42.740;22.908;2022-07-23T01:21:36;93456.88;;;17.86;55.78
45793;BME280;31495;42.740;22.908;2022-07-23T01:22:36;93457.56;;;17.76;55.73
45793;BME280;31495;42.740;22.908;2022-07-23T01:23:35;93438.09;;;17.67;55.93
45793;BME280;31495;42.740;22.908;2022-07-23T01:24:34;93442.25;;;17.63;56.13
45793;BME280;31495;42.740;22.908;2022-07-23T01:25:34;93437.44;;;17.55;56.45
45793;BME280;31495;42.740;22.908;2022-07-23T01:26:33;93434.53;;;17.51;57.05
45793;BME280;31495;42.740;22.908;2022-07-23T01:27:32;93438.72;;;17.52;57.40
45793;BME280;31495;42.740;22.908;2022-07-23T01:28:32;93440.59;;;17.57;57.20
45793;BME280;31495;42.740;22.908;2022-07-23T01:29:32;93458.53;;;17.70;57.34
45793;BME280;31495;42.740;22.908;2022-07-23T01:30:31;93445.41;;;17.65;57.03
45793;BME280;31495;42.740;22.908;2022-07-23T01:31:31;93443.56;;;17.66;57.20
45793;BME280;31495;42.740;22.908;2022-07-23T01:32:31;93430.69;;;17.59;56.92
45793;BME280;31495;42.740;22.908;2022-07-23T01:33:30;93459.88;;;17.73;57.38
45793;BME280;31495;42.740;22.908;2022-07-23T01:34:30;93441.38;;;17.57;57.32
45793;BME280;31495;42.740;22.908;2022-07-23T01:35:30;93443.22;;;17.57;57.56
45793;BME280;31495;42.740;22.908;2022-07-23T01:36:29;93433.78;;;17.56;57.42
45793;BME280;31495;42.740;22.908;2022-07-23T01:37:28;93437.75;;;17.58;57.62
45793;BME280;31495;42.740;22.908;2022-07-23T01:38:28;93417.00;;;17.52;56.96
45793;BME280;31495;42.740;22.908;2022-07-23T01:39:27;93430.88;;;17.52;56.76
45793;BME280;31495;42.740;22.908;2022-07-23T01:40:27;93429.84;;;17.53;56.75
45793;BME280;31495;42.740;22.908;2022-07-23T01:41:26;93436.59;;;17.49;57.07
45793;BME280;31495;42.740;22.908;2022-07-23T01:42:26;93432.31;;;17.43;57.19
45793;BME280;31495;42.740;22.908;2022-07-23T01:43:25;93435.94;;;17.37;57.59
45793;BME280;31495;42.740;22.908;2022-07-23T01:44:24;93439.53;;;17.31;57.53
45793;BME280;31495;42.740;22.908;2022-07-23T01:45:24;93440.97;;;17.21;57.83
45793;BME280;31495;42.740;22.908;2022-07-23T01:46:24;93416.47;;;17.05;58.04
45793;BME280;31495;42.740;22.908;2022-07-23T01:47:23;93433.06;;;17.16;58.07
45793;BME280;31495;42.740;22.908;2022-07-23T01:48:23;93451.34;;;17.33;57.79
45793;BME280;31495;42.740;22.908;2022-07-23T01:49:22;93452.91;;;17.34;57.82
45793;BME280;31495;42.740;22.908;2022-07-23T01:50:22;93413.53;;;17.02;58.39
45793;BME280;31495;42.740;22.908;2022-07-23T01:51:21;93441.38;;;17.13;58.44
45793;BME280;31495;42.740;22.908;2022-07-23T01:52:21;93423.28;;;17.06;58.13
45793;BME280;31495;42.740;22.908;2022-07-23T01:53:20;93437.28;;;17.17;58.12
45793;BME280;31495;42.740;22.908;2022-07-23T01:54:19;93453.38;;;17.31;58.24
45793;BME280;31495;42.740;22.908;2022-07-23T01:55:19;93432.72;;;17.07;58.29
45793;BME280;31495;42.740;22.908;2022-07-23T01:56:18;93416.91;;;16.97;58.42
45793;BME280;31495;42.740;22.908;2022-07-23T01:57:20;93451.66;;;17.20;58.33
45793;BME280;31495;42.740;22.908;2022-07-23T01:58:20;93430.41;;;17.11;58.34
45793;BME280;31495;42.740;22.908;2022-07-23T01:59:19;93435.19;;;17.19;58.01
45793;BME280;31495;42.740;22.908;2022-07-23T02:00:18;93434.34;;;17.14;58.28
45793;BME280;31495;42.740;22.908;2022-07-23T02:01:18;93440.44;;;17.19;58.13
45793;BME280;31495;42.740;22.908;2022-07-23T02:02:17;93435.44;;;17.18;58.12
45793;BME280;31495;42.740;22.908;2022-07-23T02:03:17;93435.00;;;17.26;57.77
45793;BME280;31495;42.740;22.908;2022-07-23T02:04:21;93453.06;;;17.27;57.97
45793;BME280;31495;42.740;22.908;2022-07-23T02:05:21;93427.22;;;17.09;58.26
45793;BME280;31495;42.740;22.908;2022-07-23T02:06:21;93449.38;;;17.23;58.31
45793;BME280;31495;42.740;22.908;2022-07-23T02:07:20;93459.34;;;17.26;58.36
45793;BME280;31495;42.740;22.908;2022-07-23T02:08:20;93463.28;;;17.29;58.07
45793;BME280;31495;42.740;22.908;2022-07-23T02:09:19;93462.47;;;17.23;58.46
45793;BME280;31495;42.740;22.908;2022-07-23T02:10:19;93446.31;;;17.09;58.46
45793;BME280;31495;42.740;22.908;2022-07-23T02:11:19;93448.69;;;17.11;58.30
45793;BME280;31495;42.740;22.908;2022-07-23T02:12:19;93468.47;;;17.24;58.43
45793;BME280;31495;42.740;22.908;2022-07-23T02:13:18;93467.94;;;17.22;58.46
45793;BME280;31495;42.740;22.908;2022-07-23T02:14:18;93462.31;;;17.13;58.67
45793;BME280;31495;42.740;22.908;2022-07-23T02:15:18;93469.97;;;17.20;58.40
45793;BME280;31495;42.740;22.908;2022-07-23T02:16:18;93449.72;;;17.10;58.61
45793;BME280;31495;42.740;22.908;2022-07-23T02:17:17;93463.13;;;17.14;58.44
45793;BME280;31495;42.740;22.908;2022-07-23T02:18:16;93426.25;;;16.93;58.42
45793;BME280;31495;42.740;22.908;2022-07-23T02:19:16;93466.09;;;17.22;58.68
45793;BME280;31495;42.740;22.908;2022-07-23T02:20:15;93449.22;;;17.13;58.51
45793;BME280;31495;42.740;22.908;2022-07-23T02:21:15;93448.09;;;17.04;58.55
45793;BME280;31495;42.740;22.908;2022-07-23T02:22:14;93460.16;;;17.10;58.55
45793;BME280;31495;42.740;22.908;2022-07-23T02:23:13;93456.72;;;17.04;58.72
45793;BME280;31495;42.740;22.908;2022-07-23T02:24:13;93453.31;;;17.04;58.75
45793;BME280;31495;42.740;22.908;2022-07-23T02:25:12;93478.63;;;17.20;59.19
45793;BME280;31495;42.740;22.908;2022-07-23T02:26:12;93456.00;;;17.09;58.71
45793;BME280;31495;42.740;22.908;2022-07-23T02:27:12;93476.97;;;17.14;58.94
45793;BME280;31495;42.740;22.908;2022-07-23T02:28:11;93455.06;;;16.98;59.30
45793;BME280;31495;42.740;22.908;2022-07-23T02:29:10;93467.72;;;17.06;59.14
45793;BME280;31495;42.740;22.908;2022-07-23T02:30:10;93481.41;;;17.14;58.93
45793;BME280;31495;42.740;22.908;2022-07-23T02:31:10;93458.63;;;16.92;59.08
45793;BME280;31495;42.740;22.908;2022-07-23T02:32:10;93482.38;;;17.07;59.28
45793;BME280;31495;42.740;22.908;2022-07-23T02:33:09;93454.75;;;16.78;59.29
45793;BME280;31495;42.740;22.908;2022-07-23T02:34:09;93472.25;;;16.94;59.40
45793;BME280;31495;42.740;22.908;2022-07-23T02:35:10;93469.47;;;17.01;58.91
45793;BME280;31495;42.740;22.908;2022-07-23T02:36:09;93481.84;;;17.05;58.74
45793;BME280;31495;42.740;22.908;2022-07-23T02:37:09;93453.16;;;16.77;59.30
45793;BME280;31495;42.740;22.908;2022-07-23T02:38:09;93469.81;;;16.87;58.95
45793;BME280;31495;42.740;22.908;2022-07-23T02:39:08;93458.41;;;16.77;58.92
45793;BME280;31495;42.740;22.908;2022-07-23T02:40:08;93489.69;;;16.88;58.95
45793;BME280;31495;42.740;22.908;2022-07-23T02:41:08;93473.13;;;16.66;59.42
45793;BME280;31495;42.740;22.908;2022-07-23T02:42:07;93467.59;;;16.62;59.16
45793;BME280;31495;42.740;22.908;2022-07-23T02:43:06;93450.75;;;16.53;59.31
45793;BME280;31495;42.740;22.908;2022-07-23T02:44:06;93477.31;;;16.67;59.37
45793;BME280;31495;42.740;22.908;2022-07-23T02:45:05;93480.41;;;16.64;59.51
45793;BME280;31495;42.740;22.908;2022-07-23T02:46:05;93472.97;;;16.56;59.64
45793;BME280;31495;42.740;22.908;2022-07-23T02:47:05;93496.72;;;16.71;59.61
45793;BME280;31495;42.740;22.908;2022-07-23T02:48:04;93478.34;;;16.66;59.34
45793;BME280;31495;42.740;22.908;2022-07-23T02:49:04;93463.34;;;16.56;59.53
45793;BME280;31495;42.740;22.908;2022-07-23T02:50:04;93477.09;;;16.68;59.39
45793;BME280;31495;42.740;22.908;2022-07-23T02:51:04;93480.56;;;16.74;59.47
45793;BME280;31495;42.740;22.908;2022-07-23T02:52:04;93480.56;;;16.74;59.25
45793;BME280;31495;42.740;22.908;2022-07-23T02:53:04;93461.41;;;16.68;58.95
45793;BME280;31495;42.740;22.908;2022-07-23T02:54:04;93478.91;;;16.85;58.68
45793;BME280;31495;42.740;22.908;2022-07-23T02:55:03;93471.75;;;16.80;58.88
45793;BME280;31495;42.740;22.908;2022-07-23T02:56:03;93470.44;;;16.78;59.04
45793;BME280;31495;42.740;22.908;2022-07-23T02:57:04;93501.56;;;16.96;59.08
45793;BME280;31495;42.740;22.908;2022-07-23T02:58:03;93490.72;;;16.87;59.14
45793;BME280;31495;42.740;22.908;2022-07-23T02:59:03;93492.66;;;16.80;59.32
45793;BME280;31495;42.740;22.908;2022-07-23T03:00:04;93485.00;;;16.73;59.32
45793;BME280;31495;42.740;22.908;2022-07-23T03:01:04;93502.19;;;16.86;59.38
45793;BME280;31495;42.740;22.908;2022-07-23T03:02:03;93488.72;;;16.78;59.23
45793;BME280;31495;42.740;22.908;2022-07-23T03:03:03;93472.88;;;16.67;59.29
45793;BME280;31495;42.740;22.908;2022-07-23T03:04:02;93479.22;;;16.71;59.25
45793;BME280;31495;42.740;22.908;2022-07-23T03:05:02;93500.44;;;16.92;58.94
45793;BME280;31495;42.740;22.908;2022-07-23T03:06:02;93501.97;;;16.88;58.96
45793;BME280;31495;42.740;22.908;2022-07-23T03:07:02;93471.38;;;16.71;58.99
45793;BME280;31495;42.740;22.908;2022-07-23T03:08:01;93504.66;;;16.93;58.82
45793;BME280;31495;42.740;22.908;2022-07-23T03:09:01;93495.72;;;16.89;58.52
45793;BME280;31495;42.740;22.908;2022-07-23T03:10:00;93496.41;;;16.84;58.80
45793;BME280;31495;42.740;22.908;2022-07-23T03:11:00;93481.53;;;16.68;59.03
45793;BME280;31495;42.740;22.908;2022-07-23T03:11:59;93477.50;;;16.60;59.13
45793;BME280;31495;42.740;22.908;2022-07-23T03:12:59;93477.88;;;16.52;59.09
45793;BME280;31495;42.740;22.908;2022-07-23T03:13:58;93502.59;;;16.61;59.50
45793;BME280;31495;42.740;22.908;2022-07-23T03:14:58;93486.19;;;16.49;59.59
45793;BME280;31495;42.740;22.908;2022-07-23T03:15:57;93471.63;;;16.36;59.65
45793;BME280;31495;42.740;22.908;2022-07-23T03:16:57;93474.00;;;16.38;59.52
45793;BME280;31495;42.740;22.908;2022-07-23T03:17:58;93507.59;;;16.63;59.78
45793;BME280;31495;42.740;22.908;2022-07-23T03:18:58;93517.88;;;16.69;59.35
45793;BME280;31495;42.740;22.908;2022-07-23T03:19:57;93482.78;;;16.48;59.19
45793;BME280;31495;42.740;22.908;2022-07-23T03:20:57;93492.47;;;16.48;59.35
45793;BME280;31495;42.740;22.908;2022-07-23T03:21:56;93488.72;;;16.44;59.64
45793;BME280;31495;42.740;22.908;2022-07-23T03:22:56;93512.81;;;16.63;59.47
45793;BME280;31495;42.740;22.908;2022-07-23T03:23:55;93494.81;;;16.49;59.53
45793;BME280;31495;42.740;22.908;2022-07-23T03:24:54;93493.56;;;16.52;59.56
45793;BME280;31495;42.740;22.908;2022-07-23T03:25:54;93481.66;;;16.44;59.45
45793;BME280;31495;42.740;22.908;2022-07-23T03:26:53;93519.91;;;16.67;59.22
45793;BME280;31495;42.740;22.908;2022-07-23T03:27:52;93486.66;;;16.46;59.41
45793;BME280;31495;42.740;22.908;2022-07-23T03:28:52;93522.03;;;16.70;59.42
45793;BME280;31495;42.740;22.908;2022-07-23T03:29:53;93520.09;;;16.78;59.08
45793;BME280;31495;42.740;22.908;2022-07-23T03:30:53;93507.34;;;16.64;59.18
45793;BME280;31495;42.740;22.908;2022-07-23T03:31:53;93499.72;;;16.46;59.17
45793;BME280;31495;42.740;22.908;2022-07-23T03:32:52;93493.88;;;16.39;59.61
45793;BME280;31495;42.740;22.908;2022-07-23T03:33:51;93511.59;;;16.37;59.89
45793;BME280;31495;42.740;22.908;2022-07-23T03:34:51;93525.84;;;16.46;59.98
45793;BME280;31495;42.740;22.908;2022-07-23T03:35:51;93510.56;;;16.38;59.97
45793;BME280;31495;42.740;22.908;2022-07-23T03:36:50;93489.81;;;16.31;59.82
45793;BME280;31495;42.740;22.908;2022-07-23T03:37:50;93462.94;;;16.13;59.77
45793;BME280;31495;42.740;22.908;2022-07-23T03:38:49;93485.31;;;16.26;60.31
45793;BME280;31495;42.740;22.908;2022-07-23T03:39:50;93531.72;;;16.53;59.84
45793;BME280;31495;42.740;22.908;2022-07-23T03:40:49;93515.47;;;16.51;59.53
45793;BME280;31495;42.740;22.908;2022-07-23T03:41:49;93495.13;;;16.36;59.62
45793;BME280;31495;42.740;22.908;2022-07-23T03:42:48;93497.97;;;16.34;59.64
45793;BME280;31495;42.740;22.908;2022-07-23T03:43:48;93504.22;;;16.33;60.11
45793;BME280;31495;42.740;22.908;2022-07-23T03:44:47;93477.47;;;16.09;60.15
45793;BME280;31495;42.740;22.908;2022-07-23T03:45:47;93489.81;;;16.14;60.47
45793;BME280;31495;42.740;22.908;2022-07-23T03:46:46;93525.69;;;16.35;60.62
45793;BME280;31495;42.740;22.908;2022-07-23T03:47:45;93491.72;;;16.19;60.43
45793;BME280;31495;42.740;22.908;2022-07-23T03:48:45;93515.00;;;16.37;60.20
45793;BME280;31495;42.740;22.908;2022-07-23T03:49:44;93499.47;;;16.30;60.06
45793;BME280;31495;42.740;22.908;2022-07-23T03:50:43;93521.44;;;16.46;60.38
45793;BME280;31495;42.740;22.908;2022-07-23T03:51:43;93506.78;;;16.45;59.96
45793;BME280;31495;42.740;22.908;2022-07-23T03:52:43;93490.72;;;16.37;59.96
45793;BME280;31495;42.740;22.908;2022-07-23T03:53:42;93487.06;;;16.38;59.81
45793;BME280;31495;42.740;22.908;2022-07-23T03:54:41;93496.25;;;16.40;59.88
45793;BME280;31495;42.740;22.908;2022-07-23T03:55:41;93480.00;;;16.21;60.13
45793;BME280;31495;42.740;22.908;2022-07-23T03:56:40;93515.31;;;16.41;60.23
45793;BME280;31495;42.740;22.908;2022-07-23T03:57:40;93521.19;;;16.48;60.05
45793;BME280;31495;42.740;22.908;2022-07-23T03:58:40;93477.94;;;16.23;60.21
45793;BME280;31495;42.740;22.908;2022-07-23T03:59:39;93507.63;;;16.51;59.74
45793;BME280;31495;42.740;22.908;2022-07-23T04:00:38;93516.50;;;16.50;59.96
45793;BME280;31495;42.740;22.908;2022-07-23T04:01:38;93501.94;;;16.37;60.21
45793;BME280;31495;42.740;22.908;2022-07-23T04:02:38;93496.94;;;16.35;60.28
45793;BME280;31495;42.740;22.908;2022-07-23T04:03:38;93507.88;;;16.49;60.32
45793;BME280;31495;42.740;22.908;2022-07-23T04:04:37;93495.53;;;16.45;60.17
45793;BME280;31495;42.740;22.908;2022-07-23T04:05:36;93521.13;;;16.60;60.44
45793;BME280;31495;42.740;22.908;2022-07-23T04:06:36;93497.19;;;16.51;60.50
45793;BME280;31495;42.740;22.908;2022-07-23T04:07:35;93491.19;;;16.50;60.46
45793;BME280;31495;42.740;22.908;2022-07-23T04:08:35;93498.31;;;16.55;60.33
45793;BME280;31495;42.740;22.908;2022-07-23T04:09:34;93467.22;;;16.37;59.96
45793;BME280;31495;42.740;22.908;2022-07-23T04:10:33;93506.28;;;16.65;60.08
45793;BME280;31495;42.740;22.908;2022-07-23T04:11:33;93505.19;;;16.61;60.22
45793;BME280;31495;42.740;22.908;2022-07-23T04:12:32;93493.00;;;16.50;60.43
45793;BME280;31495;42.740;22.908;2022-07-23T04:13:32;93524.59;;;16.65;60.64
45793;BME280;31495;42.740;22.908;2022-07-23T04:14:31;93503.53;;;16.55;60.67
45793;BME280;31495;42.740;22.908;2022-07-23T04:15:31;93488.34;;;16.52;60.40
45793;BME280;31495;42.740;22.908;2022-07-23T04:16:31;93504.22;;;16.67;60.28
45793;BME280;31495;42.740;22.908;2022-07-23T04:17:31;93528.22;;;16.81;60.06
45793;BME280;31495;42.740;22.908;2022-07-23T04:18:30;93510.19;;;16.80;60.12
45793;BME280;31495;42.740;22.908;2022-07-23T04:19:29;93520.81;;;16.90;59.88
45793;BME280;31495;42.740;22.908;2022-07-23T04:20:30;93493.38;;;16.76;59.81
45793;BME280;31495;42.740;22.908;2022-07-23T04:21:29;93501.88;;;16.83;59.94
45793;BME280;31495;42.740;22.908;2022-07-23T04:22:29;93500.81;;;16.84;59.90
45793;BME280;31495;42.740;22.908;2022-07-23T04:23:29;93524.53;;;16.94;59.85
45793;BME280;31495;42.740;22.908;2022-07-23T04:24:28;93507.19;;;16.88;60.07
45793;BME280;31495;42.740;22.908;2022-07-23T04:25:28;93516.22;;;16.97;59.94
45793;BME280;31495;42.740;22.908;2022-07-23T04:26:27;93520.22;;;17.05;59.99
45793;BME280;31495;42.740;22.908;2022-07-23T04:27:27;93526.09;;;17.12;60.06
45793;BME280;31495;42.740;22.908;2022-07-23T04:28:26;93509.22;;;17.03;59.77
45793;BME280;31495;42.740;22.908;2022-07-23T04:29:26;93504.84;;;17.08;59.70
45793;BME280;31495;42.740;22.908;2022-07-23T04:30:25;93500.69;;;17.07;59.91
45793;BME280;31495;42.740;22.908;2022-07-23T04:31:25;93518.38;;;17.22;59.76
45793;BME280;31495;42.740;22.908;2022-07-23T04:32:24;93523.44;;;17.29;59.65
45793;BME280;31495;42.740;22.908;2022-07-23T04:33:23;93496.53;;;17.12;59.54
45793;BME280;31495;42.740;22.908;2022-07-23T04:34:23;93519.56;;;17.32;59.58
45793;BME280;31495;42.740;22.908;2022-07-23T04:35:23;93492.13;;;17.12;59.59
45793;BME280;31495;42.740;22.908;2022-07-23T04:36:23;93503.13;;;17.14;59.90
45793;BME280;31495;42.740;22.908;2022-07-23T04:37:22;93502.69;;;17.22;59.84
45793;BME280;31495;42.740;22.908;2022-07-23T04:38:22;93512.25;;;17.34;59.69
45793;BME280;31495;42.740;22.908;2022-07-23T04:39:21;93527.31;;;17.43;59.51
45793;BME280;31495;42.740;22.908;2022-07-23T04:40:21;93497.84;;;17.31;59.38
45793;BME280;31495;42.740;22.908;2022-07-23T04:41:20;93492.13;;;17.34;59.56
45793;BME280;31495;42.740;22.908;2022-07-23T04:42:20;93509.03;;;17.49;59.23
45793;BME280;31495;42.740;22.908;2022-07-23T04:43:19;93507.41;;;17.42;59.36
45793;BME280;31495;42.740;22.908;2022-07-23T04:44:19;93507.69;;;17.46;59.21
45793;BME280;31495;42.740;22.908;2022-07-23T04:45:18;93498.81;;;17.47;59.22
45793;BME280;31495;42.740;22.908;2022-07-23T04:46:18;93510.13;;;17.53;59.33
45793;BME280;31495;42.740;22.908;2022-07-23T04:47:17;93517.81;;;17.59;58.93
45793;BME280;31495;42.740;22.908;2022-07-23T04:48:17;93492.00;;;17.46;59.21
45793;BME280;31495;42.740;22.908;2022-07-23T04:49:16;93522.34;;;17.69;58.89
45793;BME280;31495;42.740;22.908;2022-07-23T04:50:16;93513.44;;;17.65;58.94
45793;BME280;31495;42.740;22.908;2022-07-23T04:51:20;93518.41;;;17.67;58.98
45793;BME280;31495;42.740;22.908;2022-07-23T04:52:19;93509.84;;;17.71;59.29
45793;BME280;31495;42.740;22.908;2022-07-23T04:53:19;93526.44;;;17.82;59.42
45793;BME280;31495;42.740;22.908;2022-07-23T04:54:19;93522.31;;;17.86;59.11
45793;BME280;31495;42.740;22.908;2022-07-23T04:55:18;93484.88;;;17.63;59.43
45793;BME280;31495;42.740;22.908;2022-07-23T04:56:18;93520.56;;;17.92;59.25
45793;BME280;31495;42.740;22.908;2022-07-23T04:57:17;93487.63;;;17.74;59.27
45793;BME280;31495;42.740;22.908;2022-07-23T04:58:17;93515.94;;;17.99;59.42
45793;BME280;31495;42.740;22.908;2022-07-23T04:59:16;93497.00;;;17.92;59.20
45793;BME280;31495;42.740;22.908;2022-07-23T05:00:15;93521.28;;;18.09;59.44
45793;BME280;31495;42.740;22.908;2022-07-23T05:01:15;93510.75;;;18.04;58.83
45793;BME280;31495;42.740;22.908;2022-07-23T05:02:14;93499.75;;;18.02;58.36
45793;BME280;31495;42.740;22.908;2022-07-23T05:03:14;93525.56;;;18.21;58.53
45793;BME280;31495;42.740;22.908;2022-07-23T05:04:14;93511.63;;;18.15;58.55
45793;BME280;31495;42.740;22.908;2022-07-23T05:05:13;93517.22;;;18.24;58.48
45793;BME280;31495;42.740;22.908;2022-07-23T05:06:13;93513.03;;;18.23;58.65
45793;BME280;31495;42.740;22.908;2022-07-23T05:07:12;93514.69;;;18.34;58.48
45793;BME280;31495;42.740;22.908;2022-07-23T05:08:12;93516.31;;;18.40;58.22
45793;BME280;31495;42.740;22.908;2022-07-23T05:09:12;93511.09;;;18.40;58.36
45793;BME280;31495;42.740;22.908;2022-07-23T05:10:11;93512.66;;;18.41;58.33
45793;BME280;31495;42.740;22.908;2022-07-23T05:11:10;93485.88;;;18.34;57.59
45793;BME280;31495;42.740;22.908;2022-07-23T05:12:10;93506.47;;;18.52;57.90